Time;durP1;ratioP1;P1;durP2;ratioP2;P2;SDS_P1;SDS_P2;PMS_P1;PMS_P2;Temp;Humidity;BMP_temperature;BMP_pressure;BME280_temperature;BME280_humidity;BME280_pressure;Samples;Min_cycle;Max_cycle;Signal;HPM_P1;HPM_P2
2023/06/24 00:01:51;;;;;;;9.93;6.20;;;16.30;99.90;;;;;;5132898;27;20487;-82
2023/06/24 00:04:18;;;;;;;9.35;5.55;;;16.20;99.90;;;;;;5122415;27;20573;-82
2023/06/24 00:06:45;;;;;;;9.77;5.88;;;16.20;99.90;;;;;;5165503;27;20514;-82
2023/06/24 00:09:12;;;;;;;10.18;6.10;;;16.20;99.90;;;;;;5118309;27;20035;-82
2023/06/24 00:11:38;;;;;;;8.80;5.70;;;16.20;99.90;;;;;;5158620;27;20075;-82
2023/06/24 00:14:06;;;;;;;12.10;6.40;;;16.20;99.90;;;;;;5136595;28;20047;-82
2023/06/24 00:16:33;;;;;;;8.98;5.82;;;16.10;99.90;;;;;;5099119;27;20455;-82
2023/06/24 00:19:01;;;;;;;10.90;5.90;;;16.10;99.90;;;;;;5155411;27;20133;-82
2023/06/24 00:21:29;;;;;;;8.93;6.15;;;16.10;99.90;;;;;;5156876;27;20050;-82
2023/06/24 00:24:04;;;;;;;9.13;5.85;;;16.10;99.90;;;;;;5123492;28;20074;-82
2023/06/24 00:26:34;;;;;;;9.63;5.55;;;16.00;99.90;;;;;;5165312;27;20075;-82
2023/06/24 00:29:00;;;;;;;9.98;6.18;;;16.00;99.90;;;;;;5151815;27;20039;-82
2023/06/24 00:31:27;;;;;;;10.10;5.45;;;16.00;99.90;;;;;;5117969;27;20047;-82
2023/06/24 00:33:54;;;;;;;10.68;6.00;;;16.00;99.90;;;;;;5151519;27;20039;-82
2023/06/24 00:36:21;;;;;;;8.20;6.13;;;15.90;99.90;;;;;;5151659;27;20376;-82
2023/06/24 00:38:48;;;;;;;10.27;5.85;;;15.90;99.90;;;;;;5134433;27;20047;-82
2023/06/24 00:41:18;;;;;;;11.32;6.47;;;15.90;99.90;;;;;;5152041;27;20035;-82
2023/06/24 00:43:46;;;;;;;10.50;6.50;;;15.80;99.90;;;;;;5151279;27;20039;-82
2023/06/24 00:46:13;;;;;;;9.35;5.88;;;15.80;99.90;;;;;;5150946;27;20034;-82
2023/06/24 00:48:40;;;;;;;10.25;6.47;;;15.80;99.90;;;;;;5159153;27;20560;-82
2023/06/24 00:51:07;;;;;;;10.32;6.18;;;15.80;99.90;;;;;;5134583;27;20043;-82
2023/06/24 00:53:33;;;;;;;11.48;6.85;;;15.80;99.90;;;;;;5147238;27;20111;-82
2023/06/24 00:56:02;;;;;;;8.93;6.38;;;15.80;99.90;;;;;;5134107;27;20043;-82
2023/06/24 00:58:31;;;;;;;11.35;6.35;;;15.70;99.90;;;;;;5143838;27;20840;-82
2023/06/24 01:00:58;;;;;;;8.85;6.03;;;15.80;99.90;;;;;;5155107;27;20045;-82
2023/06/24 01:03:25;;;;;;;11.43;6.75;;;15.70;99.90;;;;;;5172624;27;20041;-82
2023/06/24 01:05:54;;;;;;;9.25;6.20;;;15.70;99.90;;;;;;5154586;27;20031;-82
2023/06/24 01:08:22;;;;;;;9.07;6.05;;;15.70;99.90;;;;;;5171854;27;20707;-82
2023/06/24 01:10:50;;;;;;;9.27;6.30;;;15.60;99.90;;;;;;5154970;27;20375;-82
2023/06/24 01:13:18;;;;;;;12.07;5.85;;;15.60;99.90;;;;;;5172136;27;20049;-82
2023/06/24 01:15:46;;;;;;;10.05;6.40;;;15.60;99.90;;;;;;5159755;27;20067;-82
2023/06/24 01:18:33;;;;;;;10.00;6.57;;;15.60;99.90;;;;;;5167757;27;20134;-82
2023/06/24 01:21:16;;;;;;;10.30;6.35;;;15.60;99.90;;;;;;5154346;27;20034;-82
2023/06/24 01:24:21;;;;;;;8.82;6.05;;;15.50;99.90;;;;;;5165335;27;20034;-82
2023/06/24 01:27:00;;;;;;;11.27;6.20;;;15.50;99.90;;;;;;5150550;27;20043;-82
2023/06/24 01:29:54;;;;;;;10.60;6.38;;;15.50;99.90;;;;;;5150995;27;20042;-81
2023/06/24 01:32:33;;;;;;;9.75;6.13;;;15.50;99.90;;;;;;5150805;27;20069;-82
2023/06/24 01:35:03;;;;;;;11.50;6.43;;;15.40;99.90;;;;;;5150874;27;20042;-81
2023/06/24 01:37:41;;;;;;;10.68;5.65;;;15.40;99.90;;;;;;5167481;27;20502;-82
2023/06/24 01:40:13;;;;;;;9.25;6.22;;;15.40;99.90;;;;;;5179603;27;20050;-81
2023/06/24 01:42:44;;;;;;;8.57;6.20;;;15.40;99.90;;;;;;5170983;27;20042;-82
2023/06/24 01:45:14;;;;;;;13.55;6.57;;;15.40;99.90;;;;;;5164408;27;20076;-82
2023/06/24 01:47:44;;;;;;;8.38;5.90;;;15.40;99.90;;;;;;5157500;27;20034;-82
2023/06/24 01:50:13;;;;;;;11.13;6.45;;;15.40;99.90;;;;;;5171288;27;20115;-82
2023/06/24 01:52:44;;;;;;;11.40;6.40;;;15.40;99.90;;;;;;5147344;28;20792;-82
2023/06/24 01:55:16;;;;;;;8.68;5.85;;;15.40;99.90;;;;;;5150292;27;20144;-81
2023/06/24 01:57:45;;;;;;;8.88;6.45;;;15.40;99.90;;;;;;5150370;28;20047;-82
2023/06/24 02:00:12;;;;;;;10.52;6.72;;;15.40;99.90;;;;;;5114268;28;20031;-81
2023/06/24 02:02:39;;;;;;;10.10;7.07;;;15.40;99.90;;;;;;5110069;28;20055;-82
2023/06/24 02:05:08;;;;;;;12.45;7.03;;;15.40;99.90;;;;;;5129662;28;20039;-82
2023/06/24 02:07:36;;;;;;;11.32;7.00;;;15.40;99.90;;;;;;5146398;27;20041;-81
2023/06/24 02:10:04;;;;;;;11.73;7.22;;;15.30;99.90;;;;;;5170923;27;20043;-82
2023/06/24 02:12:31;;;;;;;13.68;7.85;;;15.30;99.90;;;;;;5118984;28;20050;-82
2023/06/24 02:14:59;;;;;;;13.25;8.00;;;15.30;99.90;;;;;;5112822;28;20050;-82
2023/06/24 02:17:29;;;;;;;14.57;7.72;;;15.30;99.90;;;;;;5113044;28;20047;-81
2023/06/24 02:20:00;;;;;;;13.65;8.07;;;15.30;99.90;;;;;;5113150;28;20459;-82
2023/06/24 02:22:27;;;;;;;10.55;7.50;;;15.30;99.90;;;;;;5112991;28;20492;-82
2023/06/24 02:24:54;;;;;;;9.93;7.50;;;15.20;99.90;;;;;;5112963;28;20032;-82
2023/06/24 02:27:22;;;;;;;11.68;8.25;;;15.20;99.90;;;;;;5129681;28;20046;-82
2023/06/24 02:29:49;;;;;;;14.52;8.02;;;15.20;99.90;;;;;;5112489;28;20046;-81
2023/06/24 02:32:16;;;;;;;18.35;8.27;;;15.20;99.90;;;;;;5112402;28;20048;-82
2023/06/24 02:34:43;;;;;;;15.02;8.13;;;15.20;99.90;;;;;;5112712;28;20085;-81
2023/06/24 02:37:09;;;;;;;11.57;7.95;;;15.10;99.90;;;;;;5112121;28;20116;-82
2023/06/24 02:39:39;;;;;;;13.35;7.78;;;15.20;99.90;;;;;;5129750;28;20449;-81
2023/06/24 02:42:06;;;;;;;11.73;8.52;;;15.10;99.90;;;;;;5114436;28;20039;-82
2023/06/24 02:44:32;;;;;;;13.65;8.10;;;15.20;99.90;;;;;;5129562;28;20074;-82
2023/06/24 02:46:59;;;;;;;12.82;8.23;;;15.10;99.90;;;;;;5112436;28;20031;-82
2023/06/24 02:49:27;;;;;;;11.73;7.75;;;15.10;99.90;;;;;;5112324;28;20089;-82
2023/06/24 02:51:54;;;;;;;11.85;8.23;;;15.10;99.90;;;;;;5114617;27;20068;-82
2023/06/24 02:54:21;;;;;;;14.05;8.73;;;15.00;99.90;;;;;;5116068;28;20523;-81
2023/06/24 02:56:49;;;;;;;13.48;8.27;;;15.00;99.90;;;;;;5116074;28;20036;-81
2023/06/24 02:59:15;;;;;;;11.75;8.43;;;15.00;99.90;;;;;;5115407;28;20104;-81
2023/06/24 03:01:45;;;;;;;11.80;8.20;;;15.00;99.90;;;;;;5099234;28;20035;-82
2023/06/24 03:04:12;;;;;;;13.45;9.00;;;15.00;99.90;;;;;;5149091;27;20035;-82
2023/06/24 03:06:40;;;;;;;13.30;8.07;;;15.00;99.90;;;;;;5136607;27;20070;-82
2023/06/24 03:09:07;;;;;;;11.57;8.25;;;15.00;99.90;;;;;;5123487;27;20117;-82
2023/06/24 03:11:44;;;;;;;13.52;8.82;;;15.00;99.90;;;;;;5191040;27;20043;-81
2023/06/24 03:14:11;;;;;;;13.20;8.70;;;15.00;99.90;;;;;;5142761;28;20039;-82
2023/06/24 03:16:38;;;;;;;12.40;8.57;;;15.00;99.90;;;;;;5115804;28;20122;-81
2023/06/24 03:19:05;;;;;;;12.57;8.93;;;15.00;99.90;;;;;;5115424;28;20149;-81
2023/06/24 03:21:32;;;;;;;14.00;9.35;;;15.00;99.90;;;;;;5132643;28;20031;-82
2023/06/24 03:23:59;;;;;;;15.82;8.98;;;15.00;99.90;;;;;;5134801;27;20118;-81
2023/06/24 03:26:37;;;;;;;12.48;8.57;;;14.90;99.90;;;;;;5119504;27;20047;-81
2023/06/24 03:29:04;;;;;;;12.48;8.68;;;14.90;99.90;;;;;;5136639;27;20050;-82
2023/06/24 03:31:31;;;;;;;11.18;8.30;;;14.90;99.90;;;;;;5152777;27;20494;-81
2023/06/24 03:33:57;;;;;;;14.18;8.50;;;14.90;99.90;;;;;;5135877;27;20050;-81
2023/06/24 03:36:24;;;;;;;11.15;8.40;;;14.90;99.90;;;;;;5119012;27;20042;-82
2023/06/24 03:38:51;;;;;;;14.80;8.45;;;14.90;99.90;;;;;;5135407;27;20081;-81
2023/06/24 03:41:18;;;;;;;14.25;8.00;;;15.00;99.90;;;;;;5152880;27;20119;-81
2023/06/24 03:43:45;;;;;;;11.98;8.20;;;14.90;99.90;;;;;;5135709;27;20066;-81
2023/06/24 03:46:11;;;;;;;15.50;7.85;;;15.00;99.90;;;;;;5135161;27;20067;-82
2023/06/24 03:48:38;;;;;;;13.23;8.43;;;15.00;99.90;;;;;;5152587;27;20046;-81
2023/06/24 03:51:05;;;;;;;13.45;8.43;;;15.00;99.90;;;;;;5118762;27;20070;-82
2023/06/24 03:53:33;;;;;;;11.50;8.10;;;15.00;99.90;;;;;;5118994;27;20039;-82
2023/06/24 03:56:01;;;;;;;13.55;8.07;;;15.00;99.90;;;;;;5119143;27;20043;-81
2023/06/24 03:58:27;;;;;;;13.32;8.43;;;15.00;99.90;;;;;;5152106;27;20518;-81
2023/06/24 04:00:56;;;;;;;13.95;8.35;;;15.00;99.90;;;;;;5135459;27;20123;-81
2023/06/24 04:03:25;;;;;;;12.88;8.50;;;15.10;99.90;;;;;;5118960;27;20041;-82
2023/06/24 04:05:54;;;;;;;14.07;8.63;;;15.10;99.90;;;;;;5152191;27;20067;-81
2023/06/24 04:08:22;;;;;;;15.15;9.25;;;15.20;99.90;;;;;;5131944;28;20036;-82
2023/06/24 04:10:48;;;;;;;15.20;9.70;;;15.20;99.90;;;;;;5161587;27;20045;-81
2023/06/24 04:13:15;;;;;;;15.75;9.77;;;15.20;99.90;;;;;;5129593;27;20030;-82
2023/06/24 04:15:42;;;;;;;14.75;9.35;;;15.30;99.90;;;;;;5137671;27;20051;-81
2023/06/24 04:18:09;;;;;;;13.93;9.07;;;15.30;99.90;;;;;;5127560;27;20411;-82
2023/06/24 04:20:36;;;;;;;14.20;9.13;;;15.30;99.90;;;;;;5139610;27;20031;-82
2023/06/24 04:23:04;;;;;;;17.15;9.35;;;15.40;99.90;;;;;;5126180;27;20047;-81
2023/06/24 04:25:31;;;;;;;17.65;9.43;;;15.40;99.90;;;;;;5151868;27;20027;-82
2023/06/24 04:27:58;;;;;;;17.20;8.93;;;15.40;99.90;;;;;;5135021;27;20112;-81
2023/06/24 04:30:25;;;;;;;14.77;9.50;;;15.50;99.90;;;;;;5125360;27;20102;-82
2023/06/24 04:32:51;;;;;;;14.70;8.98;;;15.50;99.90;;;;;;5154894;27;20529;-81
2023/06/24 04:35:18;;;;;;;15.73;8.98;;;15.50;99.90;;;;;;5129169;27;20042;-82
2023/06/24 04:37:45;;;;;;;14.93;8.90;;;15.50;99.90;;;;;;5121864;27;20070;-81
2023/06/24 04:40:13;;;;;;;11.25;8.20;;;15.60;99.90;;;;;;5152483;27;20491;-81
2023/06/24 04:42:40;;;;;;;11.63;8.48;;;15.70;99.90;;;;;;5168139;27;20164;-81
2023/06/24 04:45:09;;;;;;;13.52;8.52;;;15.70;99.90;;;;;;5138060;27;20118;-81
2023/06/24 04:47:36;;;;;;;15.77;8.40;;;15.70;99.90;;;;;;5155515;27;20160;-81
2023/06/24 04:50:04;;;;;;;13.55;8.65;;;15.80;99.90;;;;;;5138583;27;20125;-82
2023/06/24 04:52:30;;;;;;;12.68;8.15;;;15.80;99.90;;;;;;5172490;27;20494;-82
2023/06/24 04:54:57;;;;;;;13.32;8.73;;;15.90;99.90;;;;;;5138324;27;20045;-82
2023/06/24 04:57:29;;;;;;;11.48;8.10;;;15.90;99.90;;;;;;5138094;27;20090;-82
2023/06/24 04:59:57;;;;;;;13.32;8.65;;;16.00;99.90;;;;;;5172354;27;20462;-82
2023/06/24 05:02:24;;;;;;;15.15;7.70;;;16.00;99.90;;;;;;5139812;28;20051;-82
2023/06/24 05:04:52;;;;;;;14.93;8.20;;;16.10;99.90;;;;;;5130555;28;20068;-82
2023/06/24 05:07:19;;;;;;;14.73;7.07;;;16.10;99.90;;;;;;5113946;28;20042;-82
2023/06/24 05:09:47;;;;;;;14.60;8.23;;;16.10;99.90;;;;;;5113758;28;20039;-82
2023/06/24 05:12:14;;;;;;;13.43;8.10;;;16.20;99.90;;;;;;5137101;27;20058;-82
2023/06/24 05:14:41;;;;;;;10.27;7.60;;;16.20;99.90;;;;;;5149917;28;20035;-82
2023/06/24 05:17:07;;;;;;;12.10;7.40;;;16.30;99.90;;;;;;5134001;27;20078;-82
2023/06/24 05:19:34;;;;;;;11.32;6.82;;;16.30;99.90;;;;;;5133755;27;20046;-82
2023/06/24 05:22:01;;;;;;;12.73;8.18;;;16.40;99.90;;;;;;5149901;27;20534;-82
2023/06/24 05:24:28;;;;;;;16.15;7.47;;;16.50;99.90;;;;;;5116817;27;20462;-82
2023/06/24 05:26:54;;;;;;;15.25;8.50;;;16.50;99.90;;;;;;5134342;27;20429;-82
2023/06/24 05:29:21;;;;;;;14.75;7.80;;;16.50;99.90;;;;;;5116912;27;20047;-82
2023/06/24 05:31:48;;;;;;;10.35;7.47;;;16.50;99.90;;;;;;5150469;27;20039;-82
2023/06/24 05:34:14;;;;;;;13.85;7.85;;;16.60;99.90;;;;;;5107174;28;20475;-82
2023/06/24 05:36:42;;;;;;;10.73;7.15;;;16.70;99.90;;;;;;5129806;28;20044;-82
2023/06/24 05:39:09;;;;;;;13.90;7.20;;;16.80;99.90;;;;;;5113094;28;20392;-82
2023/06/24 05:41:36;;;;;;;14.13;6.90;;;16.90;99.90;;;;;;5113222;28;20075;-82
2023/06/24 05:44:04;;;;;;;10.63;6.78;;;16.90;99.90;;;;;;5113066;28;20071;-82
2023/06/24 05:46:31;;;;;;;10.02;6.50;;;17.00;99.90;;;;;;5118487;27;20085;-82
2023/06/24 05:48:58;;;;;;;12.43;7.40;;;17.10;99.90;;;;;;5133494;28;20043;-82
2023/06/24 05:51:25;;;;;;;12.63;6.97;;;17.20;99.90;;;;;;5116596;28;20684;-82
2023/06/24 05:53:52;;;;;;;11.13;6.03;;;17.30;99.90;;;;;;5132888;27;20110;-82
2023/06/24 05:56:20;;;;;;;10.00;6.70;;;17.30;99.90;;;;;;5150569;28;20086;-82
2023/06/24 05:58:47;;;;;;;11.38;6.38;;;17.40;99.90;;;;;;5149781;28;20039;-82
2023/06/24 06:01:13;;;;;;;10.85;6.55;;;17.50;99.90;;;;;;5150023;28;20395;-82
2023/06/24 06:03:40;;;;;;;10.65;6.72;;;17.60;99.90;;;;;;5132008;28;20419;-82
2023/06/24 06:06:07;;;;;;;13.32;7.20;;;17.70;99.90;;;;;;5133087;28;20039;-82
2023/06/24 06:08:34;;;;;;;11.85;6.43;;;17.80;99.90;;;;;;5116110;28;20131;-82
2023/06/24 06:11:04;;;;;;;10.23;6.60;;;17.90;99.90;;;;;;5116361;28;20495;-82
2023/06/24 06:13:31;;;;;;;8.68;5.80;;;18.00;99.90;;;;;;5150012;28;20039;-82
2023/06/24 06:15:57;;;;;;;10.10;6.30;;;18.00;99.90;;;;;;5130734;28;20531;-82
2023/06/24 06:18:24;;;;;;;8.88;5.95;;;18.10;99.90;;;;;;5112532;28;20039;-82
2023/06/24 06:20:51;;;;;;;10.77;6.47;;;18.30;99.90;;;;;;5096222;28;20036;-83
2023/06/24 06:23:18;;;;;;;9.35;6.22;;;18.30;99.90;;;;;;5112856;28;20043;-82
2023/06/24 06:25:44;;;;;;;11.30;6.05;;;18.40;99.90;;;;;;5112695;28;20031;-81
2023/06/24 06:28:11;;;;;;;9.48;5.50;;;18.50;99.90;;;;;;5116551;28;20050;-82
2023/06/24 06:30:38;;;;;;;9.98;6.55;;;18.60;99.90;;;;;;5099597;28;20503;-81
2023/06/24 06:33:05;;;;;;;10.27;6.28;;;18.70;99.90;;;;;;5116916;28;20055;-82
2023/06/24 06:35:32;;;;;;;8.80;6.28;;;18.80;99.90;;;;;;5106883;27;20027;-82
2023/06/24 06:37:58;;;;;;;9.48;6.68;;;19.00;99.90;;;;;;5136644;27;20107;-82
2023/06/24 06:40:26;;;;;;;8.98;6.45;;;19.10;99.90;;;;;;5120135;27;20046;-82
2023/06/24 06:42:53;;;;;;;13.23;6.40;;;19.20;99.90;;;;;;5137611;27;20090;-81
2023/06/24 06:45:20;;;;;;;11.32;6.95;;;19.30;99.90;;;;;;5137264;27;20508;-81
2023/06/24 06:47:47;;;;;;;9.95;6.43;;;19.40;99.90;;;;;;5119822;27;20035;-82
2023/06/24 06:50:13;;;;;;;11.75;5.97;;;19.60;99.90;;;;;;5153720;27;20039;-82
2023/06/24 06:52:40;;;;;;;8.40;5.82;;;19.70;99.90;;;;;;5119753;27;20035;-82
2023/06/24 06:55:07;;;;;;;8.68;5.95;;;19.90;99.90;;;;;;5136409;27;20491;-82
2023/06/24 06:57:34;;;;;;;9.25;5.90;;;20.10;99.90;;;;;;5130149;28;20036;-82
2023/06/24 07:00:01;;;;;;;8.50;5.70;;;20.20;99.90;;;;;;5103657;27;20039;-82
2023/06/24 07:02:28;;;;;;;9.57;5.90;;;20.40;99.90;;;;;;5133107;28;20128;-81
2023/06/24 07:04:54;;;;;;;8.35;5.50;;;20.50;99.90;;;;;;5099887;28;20097;-82
2023/06/24 07:07:21;;;;;;;8.48;5.63;;;20.70;99.90;;;;;;5119215;28;20479;-82
2023/06/24 07:09:48;;;;;;;8.63;5.47;;;20.90;99.90;;;;;;5110496;27;20042;-80
2023/06/24 07:12:14;;;;;;;10.02;5.40;;;21.00;99.90;;;;;;5120015;27;20391;-81
2023/06/24 07:14:41;;;;;;;8.43;5.38;;;21.00;99.90;;;;;;5153450;27;20107;-82
2023/06/24 07:17:08;;;;;;;12.45;5.88;;;21.10;99.90;;;;;;5115933;28;20111;-83
2023/06/24 07:19:34;;;;;;;9.88;5.63;;;21.20;99.90;;;;;;5115952;28;20791;-83
2023/06/24 07:22:01;;;;;;;10.43;5.50;;;21.30;99.90;;;;;;5124677;28;20131;-83
2023/06/24 07:24:28;;;;;;;12.48;6.00;;;21.30;99.90;;;;;;5126505;28;20043;-83
2023/06/24 07:26:54;;;;;;;8.85;5.40;;;21.40;99.90;;;;;;5116263;28;20046;-81
2023/06/24 07:29:21;;;;;;;7.70;5.30;;;21.50;99.90;;;;;;5110415;27;20041;-83
2023/06/24 07:31:48;;;;;;;8.95;5.50;;;21.60;99.90;;;;;;5117240;27;20040;-82
2023/06/24 07:34:15;;;;;;;9.90;5.63;;;21.70;99.90;;;;;;5133916;28;20032;-83
2023/06/24 07:36:41;;;;;;;9.20;5.88;;;21.80;99.90;;;;;;5116393;28;20096;-81
2023/06/24 07:39:08;;;;;;;8.82;5.60;;;21.80;99.90;;;;;;5120257;27;20130;-83
2023/06/24 07:41:35;;;;;;;9.77;5.85;;;21.90;99.90;;;;;;5108119;28;20039;-83
2023/06/24 07:44:02;;;;;;;8.27;5.80;;;22.00;99.90;;;;;;5099033;28;20091;-86
2023/06/24 07:46:29;;;;;;;8.88;5.75;;;22.10;99.90;;;;;;5109928;28;20119;-86
2023/06/24 07:48:56;;;;;;;8.57;5.97;;;22.30;99.90;;;;;;5118888;28;20039;-87
2023/06/24 07:51:23;;;;;;;10.45;6.13;;;22.40;99.90;;;;;;5140411;27;20043;-88
2023/06/24 07:53:49;;;;;;;7.95;5.63;;;22.60;99.90;;;;;;5132167;27;20369;-83
2023/06/24 07:56:17;;;;;;;9.10;5.97;;;22.60;99.90;;;;;;5135867;27;20047;-83
2023/06/24 07:58:44;;;;;;;9.02;5.95;;;22.70;99.90;;;;;;5135587;27;20035;-83
2023/06/24 08:01:11;;;;;;;9.15;6.03;;;22.80;99.90;;;;;;5118819;27;20039;-83
2023/06/24 08:03:37;;;;;;;10.70;6.80;;;22.90;99.90;;;;;;5118519;27;20046;-83
2023/06/24 08:06:04;;;;;;;10.10;6.38;;;22.90;99.90;;;;;;5151953;27;20039;-83
2023/06/24 08:08:31;;;;;;;10.02;6.25;;;22.90;99.90;;;;;;5115539;27;20043;-83
2023/06/24 08:10:58;;;;;;;11.13;5.90;;;22.90;99.90;;;;;;5117454;28;20114;-83
2023/06/24 08:13:24;;;;;;;9.85;5.82;;;22.90;99.90;;;;;;5114762;28;20035;-83
2023/06/24 08:15:51;;;;;;;8.30;6.28;;;23.00;99.90;;;;;;5114759;28;20112;-83
2023/06/24 08:18:18;;;;;;;9.18;5.68;;;22.90;99.90;;;;;;5148340;28;20126;-83
2023/06/24 08:20:44;;;;;;;9.25;6.00;;;22.90;99.90;;;;;;5131287;28;20396;-84
2023/06/24 08:23:11;;;;;;;7.63;5.32;;;22.80;99.90;;;;;;5097856;28;20036;-83
2023/06/24 08:25:38;;;;;;;8.25;5.82;;;23.00;99.90;;;;;;5098253;28;20085;-83
2023/06/24 08:28:04;;;;;;;9.93;5.80;;;23.20;99.90;;;;;;5097912;28;20040;-83
2023/06/24 08:30:32;;;;;;;8.13;5.88;;;23.30;99.90;;;;;;5105187;28;20077;-82
2023/06/24 08:32:59;;;;;;;12.57;6.60;;;23.40;99.90;;;;;;5114653;28;20036;-83
2023/06/24 08:35:26;;;;;;;9.70;5.35;;;23.50;99.90;;;;;;5114324;28;20668;-83
2023/06/24 08:37:52;;;;;;;8.77;5.50;;;23.60;99.90;;;;;;5134743;27;20491;-84
2023/06/24 08:40:19;;;;;;;10.02;5.47;;;23.70;99.90;;;;;;5155388;27;20520;-83
2023/06/24 08:42:46;;;;;;;8.52;5.72;;;23.80;99.90;;;;;;5155436;27;20031;-85
2023/06/24 08:45:13;;;;;;;7.95;5.25;;;23.90;99.90;;;;;;5138634;27;20039;-84
2023/06/24 08:47:42;;;;;;;8.60;5.00;;;24.00;99.90;;;;;;5138043;27;20046;-83
2023/06/24 08:50:13;;;;;;;7.60;4.97;;;24.20;99.90;;;;;;5171073;27;20099;-84
2023/06/24 08:52:44;;;;;;;11.05;5.65;;;24.10;99.90;;;;;;5151705;27;20103;-83
2023/06/24 08:55:13;;;;;;;7.68;4.65;;;24.10;99.90;;;;;;5168450;27;20031;-83
2023/06/24 08:57:40;;;;;;;6.90;4.75;;;24.20;99.90;;;;;;5151178;27;20050;-84
2023/06/24 09:00:10;;;;;;;7.72;5.13;;;24.20;99.90;;;;;;5154346;27;20479;-85
2023/06/24 09:02:40;;;;;;;9.05;4.93;;;24.20;99.90;;;;;;5136238;27;20031;-83
2023/06/24 09:05:07;;;;;;;7.63;5.15;;;24.20;99.90;;;;;;5118566;27;20042;-85
2023/06/24 09:07:34;;;;;;;7.95;4.78;;;24.40;99.90;;;;;;5136425;27;20503;-85
2023/06/24 09:10:01;;;;;;;7.97;4.45;;;24.30;99.90;;;;;;5120020;27;20051;-85
2023/06/24 09:12:35;;;;;;;5.85;4.20;;;24.30;99.90;;;;;;5131764;28;20043;-85
2023/06/24 09:15:14;;;;;;;6.40;4.40;;;24.30;99.90;;;;;;5130788;27;20570;-82
2023/06/24 09:17:46;;;;;;;6.88;3.80;;;24.40;99.90;;;;;;5139221;27;20069;-83
2023/06/24 09:20:21;;;;;;;5.82;3.55;;;24.50;99.90;;;;;;5150707;27;20042;-83
2023/06/24 09:22:49;;;;;;;5.68;3.90;;;24.50;99.90;;;;;;5125339;27;20038;-82
2023/06/24 09:25:19;;;;;;;5.35;3.78;;;24.50;99.90;;;;;;5130581;28;20043;-82
2023/06/24 09:27:52;;;;;;;5.93;3.67;;;24.60;99.90;;;;;;5113489;28;20129;-82
2023/06/24 09:30:20;;;;;;;6.45;3.72;;;24.60;99.90;;;;;;5147409;28;20066;-82
2023/06/24 09:32:48;;;;;;;6.88;3.85;;;24.70;99.90;;;;;;5130443;28;20036;-83
2023/06/24 09:35:21;;;;;;;6.85;3.70;;;24.80;99.90;;;;;;5134012;27;20515;-82
2023/06/24 09:37:55;;;;;;;7.35;4.38;;;24.90;99.90;;;;;;5167333;27;20074;-82
2023/06/24 09:40:23;;;;;;;7.97;4.65;;;25.10;99.90;;;;;;5150860;27;20486;-83
2023/06/24 09:42:55;;;;;;;5.63;3.65;;;25.30;99.90;;;;;;5134013;27;20403;-82
2023/06/24 09:45:27;;;;;;;6.80;4.07;;;25.40;99.90;;;;;;5136389;27;20051;-82
2023/06/24 09:47:57;;;;;;;7.47;4.63;;;25.40;99.90;;;;;;5140604;28;20035;-83
2023/06/24 09:50:24;;;;;;;7.63;3.88;;;25.40;99.90;;;;;;5130138;28;20403;-82
2023/06/24 09:52:52;;;;;;;7.95;4.50;;;25.50;99.90;;;;;;5120267;28;20042;-82
2023/06/24 09:55:19;;;;;;;7.78;3.80;;;25.30;99.90;;;;;;5138702;28;20065;-83
2023/06/24 09:57:51;;;;;;;6.47;4.25;;;25.40;99.90;;;;;;5138886;28;20044;-82
2023/06/24 10:00:22;;;;;;;5.28;3.60;;;25.50;99.90;;;;;;5136178;27;20087;-83
2023/06/24 10:02:49;;;;;;;5.63;3.28;;;25.40;99.90;;;;;;5149120;27;20038;-82
2023/06/24 10:05:16;;;;;;;6.80;3.80;;;25.60;99.90;;;;;;5144719;28;20035;-82
2023/06/24 10:07:43;;;;;;;5.28;3.67;;;25.70;99.90;;;;;;5167508;28;20050;-82
2023/06/24 10:10:10;;;;;;;6.55;3.15;;;25.80;99.90;;;;;;5133978;28;20031;-82
2023/06/24 10:12:37;;;;;;;6.70;3.50;;;26.00;99.90;;;;;;5132229;28;20039;-82
2023/06/24 10:15:05;;;;;;;5.38;3.17;;;26.00;99.60;;;;;;5112960;28;20039;-84
2023/06/24 10:17:32;;;;;;;6.75;3.75;;;26.10;99.90;;;;;;5146782;28;20126;-83
2023/06/24 10:20:04;;;;;;;7.25;3.40;;;26.00;99.90;;;;;;5116092;28;20122;-84
2023/06/24 10:22:31;;;;;;;8.98;3.30;;;26.20;99.90;;;;;;5129698;28;20071;-83
2023/06/24 10:25:02;;;;;;;7.50;3.17;;;26.10;99.80;;;;;;5129326;28;20046;-84
2023/06/24 10:27:32;;;;;;;6.22;3.08;;;26.30;99.20;;;;;;5096632;28;20073;-83
2023/06/24 10:30:04;;;;;;;6.00;3.13;;;26.30;99.90;;;;;;5144291;27;20047;-85
2023/06/24 10:32:44;;;;;;;6.20;3.70;;;26.30;98.50;;;;;;5151763;28;20035;-85
2023/06/24 10:35:24;;;;;;;5.60;3.42;;;26.30;97.80;;;;;;5152407;28;20035;-85
2023/06/24 10:37:56;;;;;;;5.60;3.13;;;26.50;99.50;;;;;;5141831;28;20108;-84
2023/06/24 10:40:36;;;;;;;6.60;3.13;;;26.50;98.80;;;;;;5157152;28;20491;-85
2023/06/24 10:43:22;;;;;;;6.43;3.10;;;26.60;97.60;;;;;;5148674;28;20032;-85
2023/06/24 10:45:54;;;;;;;5.07;2.85;;;26.80;97.80;;;;;;5142406;28;20372;-84
2023/06/24 10:48:21;;;;;;;5.63;3.00;;;26.90;97.80;;;;;;5155059;28;20042;-83
2023/06/24 10:50:49;;;;;;;7.93;3.28;;;26.90;98.50;;;;;;5148655;27;20043;-84
2023/06/24 10:53:20;;;;;;;6.57;3.13;;;27.10;98.60;;;;;;5123726;28;20046;-83
2023/06/24 10:55:47;;;;;;;8.57;3.40;;;27.30;98.60;;;;;;5142697;28;20040;-84
2023/06/24 10:58:15;;;;;;;5.85;2.97;;;27.00;97.40;;;;;;5102959;28;20072;-83
2023/06/24 11:00:43;;;;;;;5.10;3.00;;;27.10;97.80;;;;;;5128070;28;20039;-83
2023/06/24 11:03:15;;;;;;;5.30;3.20;;;27.10;97.90;;;;;;5146441;28;20071;-84
2023/06/24 11:05:43;;;;;;;5.05;3.13;;;26.70;96.20;;;;;;5136815;28;20692;-84
2023/06/24 11:08:10;;;;;;;5.20;2.90;;;26.40;96.30;;;;;;5132715;28;20055;-84
2023/06/24 11:10:48;;;;;;;5.38;2.83;;;26.50;97.90;;;;;;5132781;28;20063;-85
2023/06/24 11:13:15;;;;;;;7.50;2.88;;;26.60;97.10;;;;;;5151276;27;20031;-85
2023/06/24 11:15:42;;;;;;;4.85;2.97;;;26.70;97.00;;;;;;5144858;28;20044;-85
2023/06/24 11:18:10;;;;;;;5.35;2.88;;;26.90;96.60;;;;;;5132870;28;20046;-85
2023/06/24 11:20:38;;;;;;;4.30;2.90;;;27.00;96.40;;;;;;5132832;28;20035;-85
2023/06/24 11:23:10;;;;;;;6.10;3.05;;;27.20;96.50;;;;;;5132742;28;20035;-86
2023/06/24 11:25:43;;;;;;;4.72;2.80;;;27.40;96.70;;;;;;5136611;27;20031;-84
2023/06/24 11:28:15;;;;;;;7.03;3.45;;;27.30;95.90;;;;;;5136945;27;20046;-85
2023/06/24 11:30:41;;;;;;;6.45;3.13;;;27.20;95.70;;;;;;5153094;27;20107;-85
2023/06/24 11:33:08;;;;;;;7.40;3.15;;;27.20;96.90;;;;;;5101724;28;20466;-85
2023/06/24 11:35:36;;;;;;;5.78;2.97;;;27.30;97.10;;;;;;5132650;28;20035;-84
2023/06/24 11:38:08;;;;;;;4.97;2.90;;;27.50;97.10;;;;;;5134769;28;20063;-84
2023/06/24 11:41:03;;;;;;;5.85;2.67;;;27.60;96.80;;;;;;5150569;28;20040;-84
2023/06/24 11:43:43;;;;;;;7.10;2.72;;;27.50;96.90;;;;;;5133477;28;20396;-84
2023/06/24 11:46:33;;;;;;;7.00;3.17;;;27.40;95.60;;;;;;5137253;27;20031;-84
2023/06/24 11:49:34;;;;;;;6.53;3.25;;;27.40;96.20;;;;;;5153427;27;20284;-84
2023/06/24 11:52:14;;;;;;;7.00;3.00;;;27.40;95.20;;;;;;5153490;27;20046;-84
2023/06/24 11:54:42;;;;;;;6.45;3.30;;;27.50;96.60;;;;;;5153051;27;20049;-84
2023/06/24 11:57:09;;;;;;;5.32;3.13;;;27.40;96.70;;;;;;5135756;27;20050;-85
2023/06/24 11:59:36;;;;;;;5.50;2.95;;;27.50;96.70;;;;;;5152451;27;20111;-84
2023/06/24 12:02:03;;;;;;;6.00;3.17;;;27.60;97.00;;;;;;5152409;27;20035;-84
2023/06/24 12:04:31;;;;;;;6.03;2.50;;;27.80;97.00;;;;;;5115258;28;20086;-84
2023/06/24 12:06:58;;;;;;;7.32;2.80;;;27.90;95.50;;;;;;5145633;27;20070;-84
2023/06/24 12:09:26;;;;;;;4.88;2.83;;;28.20;95.90;;;;;;5135410;27;20081;-84
2023/06/24 12:11:53;;;;;;;5.25;3.17;;;28.30;95.80;;;;;;5135817;27;20103;-85
2023/06/24 12:14:19;;;;;;;6.38;3.00;;;28.30;95.50;;;;;;5135118;27;20081;-85
2023/06/24 12:16:46;;;;;;;4.97;2.88;;;28.20;95.70;;;;;;5118370;27;20133;-85
2023/06/24 12:19:13;;;;;;;5.35;2.80;;;28.30;95.60;;;;;;5118279;27;20497;-85
2023/06/24 12:21:39;;;;;;;5.60;3.15;;;28.40;95.50;;;;;;5118394;27;20504;-85
2023/06/24 12:24:06;;;;;;;7.35;3.17;;;28.40;94.90;;;;;;5117268;27;20039;-84
2023/06/24 12:26:33;;;;;;;4.30;2.60;;;28.40;94.80;;;;;;5118530;27;20063;-85
2023/06/24 12:29:00;;;;;;;5.45;2.50;;;28.40;95.40;;;;;;5118396;27;20046;-85
2023/06/24 12:31:26;;;;;;;4.03;2.58;;;28.50;95.30;;;;;;5114224;28;20044;-85
2023/06/24 12:33:53;;;;;;;3.97;2.70;;;28.70;94.20;;;;;;5131714;28;20041;-84
2023/06/24 12:36:21;;;;;;;4.55;2.70;;;28.70;94.00;;;;;;5128963;27;20098;-84
2023/06/24 12:38:48;;;;;;;3.70;2.40;;;28.70;94.40;;;;;;5143874;27;20051;-85
2023/06/24 12:41:15;;;;;;;4.57;2.40;;;28.80;94.70;;;;;;5105023;28;20123;-85
2023/06/24 12:43:42;;;;;;;5.05;3.10;;;28.90;94.80;;;;;;5103146;28;20067;-84
2023/06/24 12:46:08;;;;;;;5.47;3.03;;;28.80;93.50;;;;;;5123510;27;20074;-83
2023/06/24 12:48:35;;;;;;;5.75;2.72;;;28.80;94.50;;;;;;5118151;27;20085;-84
2023/06/24 12:51:02;;;;;;;4.90;3.00;;;28.50;94.00;;;;;;5117589;27;20051;-83